createdAt,value
2017-11-24T00:00:44.337Z,1.93
2017-11-24T00:03:12.438Z,3.03
2017-11-24T00:05:40.558Z,2.33
2017-11-24T00:08:08.707Z,2.87
2017-11-24T00:10:37.283Z,1.90
2017-11-24T00:13:06.132Z,2.20
2017-11-24T00:15:34.232Z,1.40
2017-11-24T00:18:02.386Z,1.27
2017-11-24T00:20:30.534Z,1.77
2017-11-24T00:22:58.676Z,1.17
2017-11-24T00:25:27.538Z,2.00
2017-11-24T00:27:55.634Z,1.70
2017-11-24T00:30:24.542Z,2.80
2017-11-24T00:32:52.694Z,2.20
2017-11-24T00:35:20.910Z,3.73
2017-11-24T00:37:49.333Z,2.27
2017-11-24T00:40:17.462Z,2.37
2017-11-24T00:42:48.526Z,2.00
2017-11-24T00:45:16.633Z,4.13
2017-11-24T00:47:45.470Z,2.97
2017-11-24T00:50:13.593Z,2.17
2017-11-24T00:52:41.762Z,1.93
2017-11-24T00:55:09.878Z,2.33
2017-11-24T00:57:38.045Z,1.60
2017-11-24T01:00:07.330Z,1.80
2017-11-24T01:02:36.177Z,1.40
2017-11-24T01:05:04.322Z,1.50
2017-11-24T01:07:32.524Z,2.50
2017-11-24T01:10:00.607Z,2.17
2017-11-24T01:12:28.755Z,2.30
2017-11-24T01:14:56.838Z,2.20
2017-11-24T01:17:24.985Z,1.40
2017-11-24T01:19:53.119Z,1.70
2017-11-24T01:22:21.257Z,2.20
2017-11-24T01:24:49.671Z,1.93
2017-11-24T01:27:18.090Z,1.70
2017-11-24T01:29:46.192Z,2.10
2017-11-24T01:32:14.289Z,2.13
2017-11-24T01:34:42.421Z,2.37
2017-11-24T01:37:10.566Z,1.70
2017-11-24T01:39:38.703Z,2.20
2017-11-24T01:42:06.937Z,1.87
2017-11-24T01:44:35.365Z,2.60
2017-11-24T01:47:03.557Z,1.93
2017-11-24T01:49:32.452Z,2.10
2017-11-24T01:52:01.705Z,1.97
2017-11-24T01:54:29.826Z,1.70
2017-11-24T01:56:58.770Z,2.77
2017-11-24T01:59:26.928Z,2.87
2017-11-24T02:01:55.140Z,2.53
2017-11-24T02:04:23.310Z,2.03
2017-11-24T02:06:51.893Z,2.50
2017-11-24T02:09:20.112Z,3.57
2017-11-24T02:11:48.246Z,2.73
2017-11-24T02:14:16.381Z,2.63
2017-11-24T02:16:44.478Z,2.40
2017-11-24T02:19:12.649Z,3.20
2017-11-24T02:21:40.832Z,2.13
2017-11-24T02:24:08.994Z,2.93
2017-11-24T02:26:37.143Z,3.77
2017-11-24T02:29:05.389Z,1.93
2017-11-24T02:31:35.881Z,1.87
2017-11-24T02:34:04.029Z,2.37
2017-11-24T02:36:32.188Z,2.30
2017-11-24T02:39:01.113Z,2.23
2017-11-24T02:41:29.232Z,2.43
2017-11-24T02:43:57.393Z,2.40
2017-11-24T02:46:25.534Z,2.80
2017-11-24T02:48:53.725Z,3.10
2017-11-24T02:51:22.310Z,1.80
2017-11-24T02:53:50.465Z,2.00
2017-11-24T02:56:18.613Z,2.13
2017-11-24T02:58:46.822Z,2.37
2017-11-24T03:01:14.976Z,2.57
2017-11-24T03:03:43.100Z,2.37
2017-11-24T03:06:11.202Z,2.20
2017-11-24T03:08:39.325Z,3.20
2017-11-24T03:11:07.424Z,2.80
2017-11-24T03:13:35.521Z,2.43
2017-11-24T03:16:05.341Z,1.83
2017-11-24T03:18:33.508Z,2.67
2017-11-24T03:21:01.632Z,3.00
2017-11-24T03:23:29.712Z,2.67
2017-11-24T03:25:57.806Z,2.73
2017-11-24T03:28:25.951Z,2.20
2017-11-24T03:30:54.082Z,2.60
2017-11-24T03:33:22.181Z,2.37
2017-11-24T03:35:50.272Z,2.37
2017-11-24T03:38:18.875Z,2.57
2017-11-24T03:40:46.981Z,2.10
2017-11-24T03:43:15.052Z,2.20
2017-11-24T03:45:43.241Z,2.93
2017-11-24T03:48:11.363Z,2.37
2017-11-24T03:50:39.473Z,2.10
2017-11-24T03:53:07.597Z,1.97
2017-11-24T03:55:35.717Z,2.10
2017-11-24T03:58:03.877Z,2.33
2017-11-24T04:00:32.758Z,2.00
2017-11-24T04:03:02.066Z,2.40
2017-11-24T04:05:31.106Z,3.73
2017-11-24T04:07:59.238Z,1.73
2017-11-24T04:10:28.142Z,2.30
2017-11-24T04:12:56.199Z,1.70
2017-11-24T04:15:25.041Z,2.00
2017-11-24T04:17:53.178Z,1.97
2017-11-24T04:20:23.678Z,1.90
2017-11-24T04:22:51.852Z,1.87
2017-11-24T04:25:19.970Z,1.80
2017-11-24T04:27:48.960Z,2.00
2017-11-24T04:30:17.089Z,2.30
2017-11-24T04:32:45.229Z,1.27
2017-11-24T04:35:13.309Z,1.80
2017-11-24T04:37:42.164Z,1.43
2017-11-24T04:40:10.328Z,1.80
2017-11-24T04:42:38.509Z,1.80
2017-11-24T04:45:06.592Z,2.37
2017-11-24T04:47:34.701Z,1.90
2017-11-24T04:50:02.849Z,2.47
2017-11-24T04:52:31.342Z,1.60
2017-11-24T04:54:59.442Z,2.30
2017-11-24T04:57:27.785Z,1.47
2017-11-24T04:59:56.018Z,1.83
2017-11-24T05:02:24.856Z,1.60
2017-11-24T05:04:52.934Z,2.07
2017-11-24T05:07:21.061Z,1.70
2017-11-24T05:09:49.932Z,2.03
2017-11-24T05:12:18.009Z,2.20
2017-11-24T05:14:46.824Z,2.00
2017-11-24T05:17:15.959Z,2.00
2017-11-24T05:19:44.890Z,3.03
2017-11-24T05:22:12.985Z,1.60
2017-11-24T05:24:41.286Z,2.00
2017-11-24T05:27:09.385Z,2.40
2017-11-24T05:29:37.457Z,2.80
2017-11-24T05:32:05.554Z,2.50
2017-11-24T05:34:34.386Z,1.70
2017-11-24T05:37:02.481Z,2.30
2017-11-24T05:39:30.549Z,2.40
2017-11-24T05:41:58.624Z,2.00
2017-11-24T05:44:27.160Z,1.90
2017-11-24T05:46:55.273Z,1.97
2017-11-24T05:49:23.350Z,2.30
2017-11-24T05:51:51.424Z,2.30
2017-11-24T05:54:19.537Z,1.60
2017-11-24T05:56:47.604Z,1.80
2017-11-24T05:59:15.725Z,1.80
2017-11-24T06:01:43.816Z,2.47
2017-11-24T06:04:11.873Z,2.23
2017-11-24T06:06:40.056Z,2.50
2017-11-24T06:09:08.533Z,2.30
2017-11-24T06:11:36.648Z,1.87
2017-11-24T06:14:04.859Z,2.87
2017-11-24T06:16:33.265Z,1.73
2017-11-24T06:19:01.366Z,2.03
2017-11-24T06:21:29.977Z,2.43
2017-11-24T06:23:58.389Z,2.53
2017-11-24T06:26:26.883Z,2.10
2017-11-24T06:28:54.950Z,1.87
2017-11-24T06:31:23.015Z,2.00
2017-11-24T06:33:51.089Z,2.80
2017-11-24T06:36:20.006Z,2.37
2017-11-24T06:38:48.357Z,1.93
2017-11-24T06:41:16.499Z,2.70
2017-11-24T06:43:44.598Z,2.07
2017-11-24T06:46:12.707Z,2.73
2017-11-24T06:48:40.771Z,2.20
2017-11-24T06:51:08.844Z,2.50
2017-11-24T06:53:38.421Z,2.37
2017-11-24T06:56:06.527Z,2.27
2017-11-24T06:58:34.690Z,2.73
2017-11-24T07:01:03.201Z,2.40
2017-11-24T07:03:31.348Z,2.70
2017-11-24T07:05:59.412Z,2.60
2017-11-24T07:08:27.526Z,2.23
2017-11-24T07:10:56.409Z,2.50
2017-11-24T07:13:24.511Z,3.20
2017-11-24T07:15:52.632Z,2.67
2017-11-24T07:18:20.760Z,3.40
2017-11-24T07:20:49.563Z,3.40
2017-11-24T07:23:17.677Z,3.33
2017-11-24T07:25:47.261Z,3.30
2017-11-24T07:28:15.349Z,3.10
2017-11-24T07:30:43.435Z,3.20
2017-11-24T07:33:11.861Z,3.00
2017-11-24T07:35:39.937Z,2.40
2017-11-24T07:38:08.017Z,2.50
2017-11-24T07:40:36.125Z,2.27
2017-11-24T07:43:04.374Z,2.30
2017-11-24T07:45:32.557Z,2.33
2017-11-24T07:48:00.622Z,2.57
2017-11-24T07:50:28.711Z,2.03
2017-11-24T07:52:57.312Z,2.60
2017-11-24T07:55:26.120Z,3.23
2017-11-24T07:57:54.214Z,2.70
2017-11-24T08:00:23.056Z,2.23
2017-11-24T08:02:51.133Z,2.60
2017-11-24T08:05:19.198Z,2.43
2017-11-24T08:07:48.749Z,2.57
2017-11-24T08:10:16.853Z,2.80
2017-11-24T08:12:44.921Z,2.70
2017-11-24T08:15:12.993Z,2.43
2017-11-24T08:17:41.044Z,3.03
2017-11-24T08:20:09.425Z,2.43
2017-11-24T08:22:37.550Z,2.60
2017-11-24T08:25:05.661Z,2.10
2017-11-24T08:27:33.801Z,2.07
2017-11-24T08:30:02.712Z,1.77
2017-11-24T08:32:31.554Z,1.40
2017-11-24T08:34:59.636Z,1.83
2017-11-24T08:37:27.709Z,1.50
2017-11-24T08:39:55.772Z,2.00
2017-11-24T08:42:23.856Z,1.60
2017-11-24T08:44:51.953Z,1.57
2017-11-24T08:47:25.529Z,1.90
2017-11-24T08:49:53.968Z,4.73
2017-11-24T08:52:22.108Z,11.80
2017-11-24T08:54:50.909Z,45.17
2017-11-24T08:57:19.001Z,8.00
2017-11-24T08:59:47.082Z,6.20
2017-11-24T09:02:16.590Z,45.23
2017-11-24T09:04:44.678Z,13.73
2017-11-24T09:07:12.725Z,2.80
2017-11-24T09:09:40.850Z,12.10
2017-11-24T09:12:09.752Z,7.40
2017-11-24T09:14:37.844Z,2.30
2017-11-24T09:17:06.684Z,2.40
2017-11-24T09:19:34.759Z,2.00
2017-11-24T09:22:03.020Z,2.07
2017-11-24T09:24:31.091Z,2.07
2017-11-24T09:26:59.660Z,1.90
2017-11-24T09:29:27.752Z,2.47
2017-11-24T09:31:55.852Z,2.07
2017-11-24T09:34:23.978Z,2.40
2017-11-24T09:36:52.088Z,1.70
2017-11-24T09:39:20.346Z,2.03
2017-11-24T09:41:48.501Z,2.50
2017-11-24T09:44:16.630Z,1.80
2017-11-24T09:46:45.303Z,2.37
2017-11-24T09:49:13.369Z,3.40
2017-11-24T09:51:41.485Z,2.20
2017-11-24T09:54:09.595Z,1.73
2017-11-24T09:56:37.723Z,2.10
2017-11-24T09:59:06.561Z,1.67
2017-11-24T10:01:34.690Z,1.70
2017-11-24T10:04:03.660Z,2.13
2017-11-24T10:06:32.021Z,1.57
2017-11-24T10:09:00.166Z,2.00
2017-11-24T10:11:28.260Z,1.50
2017-11-24T10:13:56.327Z,1.60
2017-11-24T10:16:24.384Z,2.23
2017-11-24T10:18:52.529Z,2.10
2017-11-24T10:21:25.528Z,2.37
2017-11-24T10:23:53.620Z,3.60
2017-11-24T10:26:21.724Z,1.73
2017-11-24T10:28:50.179Z,1.50
2017-11-24T10:31:18.252Z,2.23
2017-11-24T10:33:47.057Z,1.90
2017-11-24T10:36:15.169Z,2.23
2017-11-24T10:38:43.254Z,1.70
2017-11-24T10:41:11.729Z,1.40
2017-11-24T10:43:39.797Z,2.10
2017-11-24T10:46:08.301Z,1.67
2017-11-24T10:48:36.408Z,1.70
2017-11-24T10:51:04.700Z,1.63
2017-11-24T10:53:32.781Z,1.00
2017-11-24T10:56:00.865Z,0.90
2017-11-24T10:58:29.704Z,1.23
2017-11-24T11:00:57.761Z,1.30
2017-11-24T11:03:25.832Z,1.20
2017-11-24T11:05:53.903Z,1.30
2017-11-24T11:08:22.473Z,1.50
2017-11-24T11:10:50.604Z,2.00
2017-11-24T11:13:18.657Z,0.90
2017-11-24T11:15:46.718Z,1.80
2017-11-24T11:18:14.769Z,1.40
2017-11-24T11:20:43.280Z,1.17
2017-11-24T11:23:12.067Z,1.50
2017-11-24T11:25:40.650Z,1.60
2017-11-24T11:28:10.157Z,1.13
2017-11-24T11:30:38.844Z,1.90
2017-11-24T11:33:08.348Z,1.40
2017-11-24T11:35:36.745Z,1.80
2017-11-24T11:38:05.925Z,1.80
2017-11-24T11:40:34.400Z,1.80
2017-11-24T11:43:02.487Z,1.83
2017-11-24T11:45:30.978Z,1.73
2017-11-24T11:47:59.093Z,1.97
2017-11-24T11:50:27.987Z,2.00
2017-11-24T11:52:56.098Z,2.40
2017-11-24T11:55:24.217Z,1.87
2017-11-24T11:57:52.760Z,1.90
2017-11-24T12:00:20.868Z,1.80
2017-11-24T12:02:48.977Z,2.30
2017-11-24T12:05:17.049Z,1.90
2017-11-24T12:07:45.128Z,2.93
2017-11-24T12:10:13.282Z,1.70
2017-11-24T12:12:42.104Z,2.40
2017-11-24T12:15:10.282Z,2.00
2017-11-24T12:17:38.412Z,1.80
2017-11-24T12:20:07.237Z,1.97
2017-11-24T12:22:35.617Z,1.80
2017-11-24T12:25:04.541Z,1.90
2017-11-24T12:27:32.693Z,1.57
2017-11-24T12:30:00.805Z,2.30
2017-11-24T12:32:28.878Z,2.80
2017-11-24T12:34:57.021Z,2.20
2017-11-24T12:37:25.324Z,2.07
2017-11-24T12:39:53.726Z,2.50
2017-11-24T12:42:22.206Z,2.80
2017-11-24T12:44:50.696Z,2.40
2017-11-24T12:47:20.135Z,2.63
2017-11-24T12:49:48.694Z,2.60
2017-11-24T12:52:17.302Z,4.23
2017-11-24T12:54:46.287Z,3.30
2017-11-24T12:57:14.416Z,4.50
2017-11-24T12:59:42.523Z,2.53
2017-11-24T13:02:11.358Z,3.03
2017-11-24T13:04:39.456Z,10.27
2017-11-24T13:07:07.595Z,4.40
2017-11-24T13:09:35.719Z,4.57
2017-11-24T13:12:04.621Z,6.30
2017-11-24T13:14:32.770Z,5.23
2017-11-24T13:17:00.859Z,5.90
2017-11-24T13:19:28.941Z,3.40
2017-11-24T13:21:57.304Z,4.07
2017-11-24T13:24:26.140Z,5.07
2017-11-24T13:26:54.248Z,3.13
2017-11-24T13:29:22.446Z,3.03
2017-11-24T13:31:50.515Z,3.73
2017-11-24T13:34:18.598Z,2.93
2017-11-24T13:36:46.718Z,2.73
2017-11-24T13:39:14.831Z,3.10
2017-11-24T13:41:42.947Z,3.50
2017-11-24T13:44:11.539Z,3.33
2017-11-24T13:46:39.650Z,6.73
2017-11-24T13:49:08.495Z,9.70
2017-11-24T13:51:36.577Z,5.33
2017-11-24T13:54:04.683Z,5.57
2017-11-24T13:56:32.766Z,3.30
2017-11-24T13:59:00.845Z,3.97
2017-11-24T14:01:28.921Z,3.50
2017-11-24T14:03:57.022Z,3.07
2017-11-24T14:06:25.397Z,2.90
2017-11-24T14:08:53.783Z,3.10
2017-11-24T14:11:21.913Z,2.80
2017-11-24T14:13:50.749Z,3.17
2017-11-24T14:16:18.833Z,3.20
2017-11-24T14:18:46.955Z,2.70
2017-11-24T14:21:15.167Z,2.90
2017-11-24T14:23:43.394Z,5.30
2017-11-24T14:26:11.469Z,3.53
2017-11-24T14:28:39.546Z,3.67
2017-11-24T14:31:08.709Z,2.90
2017-11-24T14:33:36.837Z,3.87
2017-11-24T14:36:05.264Z,2.60
2017-11-24T14:38:33.389Z,2.87
2017-11-24T14:41:01.611Z,2.60
2017-11-24T14:43:29.711Z,3.00
2017-11-24T14:45:58.532Z,2.93
2017-11-24T14:48:28.658Z,3.33
2017-11-24T14:50:56.725Z,3.57
2017-11-24T14:53:25.570Z,2.90
2017-11-24T14:55:53.654Z,2.73
2017-11-24T14:58:21.823Z,3.67
2017-11-24T15:00:50.021Z,3.40
2017-11-24T15:03:18.129Z,2.90
2017-11-24T15:05:46.277Z,3.13
2017-11-24T15:08:14.446Z,3.00
2017-11-24T15:10:42.882Z,2.57
2017-11-24T15:13:12.478Z,4.20
2017-11-24T15:15:40.601Z,3.30
2017-11-24T15:18:08.698Z,3.37
2017-11-24T15:20:36.769Z,3.20
2017-11-24T15:23:04.936Z,2.93
2017-11-24T15:25:33.017Z,3.10
2017-11-24T15:28:01.201Z,4.03
2017-11-24T15:30:29.613Z,3.47
2017-11-24T15:32:57.692Z,3.40
2017-11-24T15:35:25.772Z,2.67
2017-11-24T15:37:54.581Z,4.37
2017-11-24T15:40:22.724Z,3.60
2017-11-24T15:42:51.551Z,3.00
2017-11-24T15:45:19.661Z,4.10
2017-11-24T15:47:47.741Z,3.83
2017-11-24T15:50:15.813Z,3.67
2017-11-24T15:52:43.947Z,3.00
2017-11-24T15:55:12.021Z,3.13
2017-11-24T15:57:40.100Z,3.20
2017-11-24T16:00:08.221Z,3.30
2017-11-24T16:02:37.030Z,3.90
2017-11-24T16:05:05.943Z,4.23
2017-11-24T16:07:34.011Z,3.73
2017-11-24T16:10:02.099Z,3.70
2017-11-24T16:12:30.153Z,2.80
2017-11-24T16:14:58.720Z,3.20
2017-11-24T16:17:26.793Z,3.70
2017-11-24T16:19:54.889Z,2.43
2017-11-24T16:22:22.965Z,3.80
2017-11-24T16:24:51.042Z,2.90
2017-11-24T16:27:19.133Z,3.23
2017-11-24T16:29:47.226Z,4.00
2017-11-24T16:32:17.173Z,2.93
2017-11-24T16:34:46.008Z,2.57
2017-11-24T16:37:14.124Z,3.10
2017-11-24T16:39:43.005Z,3.53
2017-11-24T16:42:11.238Z,2.90
2017-11-24T16:44:39.352Z,3.50
2017-11-24T16:47:07.539Z,3.50
2017-11-24T16:49:35.746Z,3.00
2017-11-24T16:52:03.857Z,3.20
2017-11-24T16:54:31.953Z,3.77
2017-11-24T16:57:01.586Z,3.37
2017-11-24T16:59:30.896Z,4.03
2017-11-24T17:01:59.036Z,3.33
2017-11-24T17:04:27.136Z,4.13
2017-11-24T17:06:55.253Z,4.33
2017-11-24T17:09:23.350Z,4.20
2017-11-24T17:11:51.473Z,4.47
2017-11-24T17:14:19.646Z,4.40
2017-11-24T17:16:47.745Z,7.73
2017-11-24T17:19:15.841Z,4.80
2017-11-24T17:21:43.934Z,5.10
2017-11-24T17:24:13.083Z,5.30
2017-11-24T17:26:41.254Z,5.20
2017-11-24T17:29:09.395Z,5.40
2017-11-24T17:31:37.509Z,4.87
2017-11-24T17:34:06.372Z,5.77
2017-11-24T17:36:34.488Z,4.70
2017-11-24T17:39:03.813Z,6.20
2017-11-24T17:41:32.682Z,5.90
2017-11-24T17:44:00.781Z,5.93
2017-11-24T17:46:28.873Z,5.90
2017-11-24T17:48:57.001Z,6.13
2017-11-24T17:51:25.141Z,5.80
2017-11-24T17:53:53.246Z,6.03
2017-11-24T17:56:22.861Z,5.80
2017-11-24T17:58:50.975Z,6.10
2017-11-24T18:01:34.093Z,6.17
2017-11-24T18:04:02.240Z,7.00
2017-11-24T18:06:31.296Z,5.60
2017-11-24T18:08:59.853Z,7.03
2017-11-24T18:11:27.966Z,6.30
2017-11-24T18:13:56.062Z,6.47
2017-11-24T18:16:24.174Z,6.60
2017-11-24T18:18:52.312Z,6.03
2017-11-24T18:21:20.478Z,6.57
2017-11-24T18:23:48.612Z,6.80
2017-11-24T18:26:16.729Z,6.90
2017-11-24T18:28:44.901Z,7.90
2017-11-24T18:31:13.153Z,6.13
2017-11-24T18:33:41.281Z,7.23
2017-11-24T18:36:09.516Z,7.37
2017-11-24T18:38:37.691Z,6.70
2017-11-24T18:41:05.897Z,6.33
2017-11-24T18:43:34.054Z,6.67
2017-11-24T18:46:02.595Z,8.13
2017-11-24T18:48:30.733Z,7.67
2017-11-24T18:50:58.836Z,5.80
2017-11-24T18:53:26.969Z,7.73
2017-11-24T18:55:56.268Z,6.90
2017-11-24T18:58:25.106Z,7.67
2017-11-24T19:00:53.386Z,8.43
2017-11-24T19:03:21.477Z,8.07
2017-11-24T19:05:49.735Z,8.13
2017-11-24T19:08:17.845Z,7.10
2017-11-24T19:10:45.954Z,8.20
2017-11-24T19:13:14.129Z,8.23
2017-11-24T19:15:42.674Z,7.73
2017-11-24T19:18:10.968Z,9.20
2017-11-24T19:20:39.861Z,9.10
2017-11-24T19:23:08.745Z,8.73
2017-11-24T19:25:37.598Z,7.70
2017-11-24T19:28:05.716Z,8.13
2017-11-24T19:30:34.553Z,8.33
2017-11-24T19:33:03.365Z,8.10
2017-11-24T19:35:31.546Z,9.10
2017-11-24T19:38:00.138Z,8.40
2017-11-24T19:40:28.234Z,8.87
2017-11-24T19:42:57.097Z,8.67
2017-11-24T19:45:25.217Z,8.77
2017-11-24T19:47:53.651Z,9.13
2017-11-24T19:50:22.226Z,9.97
2017-11-24T19:52:49.902Z,8.60
2017-11-24T19:55:18.298Z,9.33
2017-11-24T19:57:46.437Z,9.37
2017-11-24T20:00:14.909Z,8.40
2017-11-24T20:02:43.032Z,9.93
2017-11-24T20:05:11.855Z,9.67
2017-11-24T20:07:39.972Z,9.57
2017-11-24T20:10:08.150Z,10.60
2017-11-24T20:12:36.510Z,10.00
2017-11-24T20:15:04.710Z,9.53
2017-11-24T20:17:33.648Z,11.07
2017-11-24T20:20:01.910Z,10.40
2017-11-24T20:22:30.396Z,10.77
2017-11-24T20:24:58.520Z,9.90
2017-11-24T20:27:26.749Z,10.33
2017-11-24T20:29:54.857Z,9.73
2017-11-24T20:32:23.296Z,9.63
2017-11-24T20:34:51.696Z,10.17
2017-11-24T20:37:19.872Z,11.63
2017-11-24T20:39:47.973Z,11.00
2017-11-24T20:42:16.538Z,12.13
2017-11-24T20:44:44.617Z,12.07
2017-11-24T20:47:12.796Z,11.53
2017-11-24T20:49:40.885Z,11.60
2017-11-24T20:52:09.032Z,12.87
2017-11-24T20:54:37.178Z,13.73
2017-11-24T20:57:05.269Z,13.90
2017-11-24T20:59:33.669Z,12.40
2017-11-24T21:02:01.762Z,14.10
2017-11-24T21:04:30.654Z,15.10
2017-11-24T21:06:59.546Z,13.07
2017-11-24T21:09:28.464Z,14.93
2017-11-24T21:11:56.581Z,16.60
2017-11-24T21:14:24.691Z,14.77
2017-11-24T21:16:52.782Z,14.93
2017-11-24T21:19:20.848Z,14.70
2017-11-24T21:21:48.945Z,15.00
2017-11-24T21:24:17.067Z,13.90
2017-11-24T21:26:45.260Z,13.60
2017-11-24T21:29:13.873Z,14.90
2017-11-24T21:31:41.993Z,15.03
2017-11-24T21:34:10.393Z,15.30
2017-11-24T21:36:39.215Z,13.50
2017-11-24T21:39:07.505Z,15.27
2017-11-24T21:41:35.641Z,15.20
2017-11-24T21:44:05.218Z,14.20
2017-11-24T21:46:33.567Z,15.43
2017-11-24T21:49:02.046Z,15.50
2017-11-24T21:51:30.106Z,18.30
2017-11-24T21:53:58.171Z,16.53
2017-11-24T21:56:26.445Z,16.80
2017-11-24T21:58:54.530Z,14.97
2017-11-24T22:01:22.638Z,16.80
2017-11-24T22:03:51.098Z,17.87
2017-11-24T22:06:19.205Z,16.83
2017-11-24T22:08:47.286Z,16.93
2017-11-24T22:11:16.105Z,15.73
2017-11-24T22:13:44.205Z,17.30
2017-11-24T22:16:12.292Z,15.67
2017-11-24T22:18:40.379Z,17.43
2017-11-24T22:21:08.469Z,15.93
2017-11-24T22:23:37.298Z,17.47
2017-11-24T22:26:05.381Z,16.80
2017-11-24T22:28:33.489Z,15.97
2017-11-24T22:31:02.345Z,16.83
2017-11-24T22:33:30.465Z,16.10
2017-11-24T22:35:59.299Z,16.50
2017-11-24T22:38:27.405Z,18.07
2017-11-24T22:40:55.526Z,16.13
2017-11-24T22:43:23.657Z,16.70
2017-11-24T22:45:51.796Z,18.23
2017-11-24T22:48:20.483Z,17.27
2017-11-24T22:50:48.565Z,17.13
2017-11-24T22:53:16.622Z,16.70
2017-11-24T22:55:44.744Z,17.80
2017-11-24T22:58:12.898Z,18.57
2017-11-24T23:00:42.480Z,16.87
2017-11-24T23:03:10.757Z,19.90
2017-11-24T23:05:38.880Z,17.87
2017-11-24T23:08:07.697Z,18.03
2017-11-24T23:10:35.860Z,20.90
2017-11-24T23:13:04.402Z,24.40
2017-11-24T23:15:33.975Z,20.63
2017-11-24T23:18:02.261Z,18.53
2017-11-24T23:20:30.539Z,16.50
2017-11-24T23:22:58.596Z,17.80
2017-11-24T23:25:26.673Z,17.10
2017-11-24T23:27:54.762Z,15.73
2017-11-24T23:30:22.825Z,14.53
2017-11-24T23:32:50.869Z,15.27
2017-11-24T23:35:18.966Z,14.93
2017-11-24T23:37:47.473Z,16.57
2017-11-24T23:40:15.565Z,16.27
2017-11-24T23:42:43.638Z,16.17
2017-11-24T23:45:11.705Z,16.13
2017-11-24T23:47:40.554Z,17.17
2017-11-24T23:50:08.645Z,16.33
2017-11-24T23:52:36.921Z,16.73
2017-11-24T23:55:05.002Z,16.23
2017-11-24T23:57:33.080Z,17.47
